Terminal Aerodrome Forecast
Issued by NWS

Home | Current Version | Previous Version | Text Only | Print | Product List | Glossary On
Versions: 1 2 3 4 5 6 7 8 9 10 11 12 13 14 15 16 17
000
FTUS43 KGRR 261951 AAA
TAFMKG
TAF AMD
KMKG 261951Z 2620/2718 21011G20KT P6SM SCT035 BKN250
     FM270200 19004KT 4SM BR BKN250
     FM270900 16004KT 2SM BR SCT009
     FM271300 20008KT 4SM HZ BKN015=

USA.gov is the U.S. government's official web portal to all federal, state and local government web resources and services.